Time;durP1;ratioP1;P1;durP2;ratioP2;P2;SDS_P1;SDS_P2;PMS_P1;PMS_P2;Temp;Humidity;BMP_temperature;BMP_pressure;BME280_temperature;BME280_humidity;BME280_pressure;Samples;Min_cycle;Max_cycle;Signal;HPM_P1;HPM_P2
2022/05/10 00:00:05;;;;;;;4.93;3.20;;;15.40;99.90;;;;;;5072466;28;20020;-80
2022/05/10 00:02:32;;;;;;;7.22;3.17;;;15.50;99.90;;;;;;5072432;28;20082;-80
2022/05/10 00:04:58;;;;;;;8.25;3.50;;;15.60;99.90;;;;;;5102117;22;20036;-75
2022/05/10 00:07:26;;;;;;;4.82;3.10;;;15.70;99.90;;;;;;5091187;28;20023;-75
2022/05/10 00:09:52;;;;;;;8.80;3.08;;;15.70;99.90;;;;;;5092300;28;20024;-75
2022/05/10 00:12:17;;;;;;;6.97;3.30;;;15.80;99.90;;;;;;5090713;28;20043;-74
2022/05/10 00:14:43;;;;;;;4.72;2.83;;;15.80;99.90;;;;;;5098717;28;20387;-74
2022/05/10 00:17:18;;;;;;;4.82;3.40;;;15.90;99.90;;;;;;5092470;28;20027;-75
2022/05/10 00:19:44;;;;;;;6.10;3.40;;;16.00;99.90;;;;;;5092163;28;20472;-74
2022/05/10 00:22:10;;;;;;;8.30;3.75;;;16.00;99.90;;;;;;5092051;28;20012;-74
2022/05/10 00:24:36;;;;;;;6.72;3.35;;;15.90;99.90;;;;;;5091437;28;20031;-74
2022/05/10 00:27:01;;;;;;;6.10;3.70;;;16.00;99.90;;;;;;5091425;28;20020;-75
2022/05/10 00:29:27;;;;;;;6.22;3.33;;;16.00;99.90;;;;;;5092259;28;20020;-74
2022/05/10 00:31:53;;;;;;;7.57;3.17;;;15.90;99.90;;;;;;5092122;28;20047;-75
2022/05/10 00:34:19;;;;;;;4.63;3.20;;;15.90;99.90;;;;;;5093566;28;20020;-74
2022/05/10 00:36:45;;;;;;;5.38;3.22;;;15.90;99.90;;;;;;5091379;28;20020;-74
2022/05/10 00:39:12;;;;;;;5.95;3.20;;;15.90;99.90;;;;;;5092032;28;20047;-74
2022/05/10 00:42:06;;;;;;;8.45;3.55;;;15.90;99.90;;;;;;5091823;28;20477;-75
2022/05/10 00:44:42;;;;;;;5.90;2.95;;;15.90;99.90;;;;;;5098659;28;20423;-75
2022/05/10 00:47:31;;;;;;;5.20;3.13;;;16.00;99.90;;;;;;5091508;28;20027;-75
2022/05/10 00:50:13;;;;;;;6.10;3.38;;;16.10;99.90;;;;;;5091480;28;20057;-75
2022/05/10 00:52:45;;;;;;;4.70;3.55;;;16.20;99.90;;;;;;5091547;28;20023;-74
2022/05/10 00:55:16;;;;;;;7.53;3.65;;;16.20;99.90;;;;;;5091303;28;20024;-74
2022/05/10 00:57:58;;;;;;;7.38;3.85;;;16.30;99.90;;;;;;5090320;28;20111;-75
2022/05/10 01:00:27;;;;;;;4.53;3.40;;;16.30;99.90;;;;;;5091615;28;20019;-75
2022/05/10 01:02:55;;;;;;;4.72;3.40;;;16.30;99.90;;;;;;5091499;28;20032;-75
2022/05/10 01:05:30;;;;;;;5.25;3.55;;;16.30;99.90;;;;;;5089383;23;20056;-81
2022/05/10 01:08:22;;;;;;;7.28;3.65;;;16.30;99.90;;;;;;5071777;28;20108;-81
2022/05/10 01:11:05;;;;;;;5.30;3.40;;;16.20;99.90;;;;;;5072119;28;20017;-80
2022/05/10 01:13:57;;;;;;;8.68;4.85;;;16.10;99.90;;;;;;5068837;28;20466;-80
2022/05/10 01:16:24;;;;;;;5.35;3.90;;;16.00;99.90;;;;;;5049982;28;20032;-80
2022/05/10 01:18:52;;;;;;;8.07;4.05;;;15.90;99.90;;;;;;5050139;28;20025;-80
2022/05/10 01:21:55;;;;;;;7.63;4.22;;;15.90;99.90;;;;;;5051337;28;20478;-80
2022/05/10 01:24:42;;;;;;;9.07;4.45;;;15.80;99.90;;;;;;5051311;28;20037;-79
2022/05/10 01:27:32;;;;;;;8.10;4.20;;;15.70;99.90;;;;;;5051765;28;20025;-80
2022/05/10 01:30:20;;;;;;;7.47;4.50;;;15.70;99.90;;;;;;5051710;28;20021;-80
2022/05/10 01:36:20;;;;;;;7.38;3.38;;;15.60;99.90;;;;;;5046314;28;20087;-79
2022/05/10 01:38:55;;;;;;;5.55;4.38;;;15.50;99.90;;;;;;5049525;28;20075;-80
2022/05/10 01:41:29;;;;;;;10.65;5.28;;;15.40;99.90;;;;;;5051433;28;20025;-79
2022/05/10 01:43:57;;;;;;;6.05;4.05;;;15.40;99.90;;;;;;5051006;28;20100;-81
2022/05/10 01:46:27;;;;;;;11.18;4.95;;;15.40;99.90;;;;;;5052014;28;20047;-80
2022/05/10 01:49:19;;;;;;;7.70;4.55;;;15.40;99.90;;;;;;5054272;28;20085;-80
2022/05/10 01:51:55;;;;;;;9.20;5.40;;;15.40;99.90;;;;;;5055439;28;20021;-80
2022/05/10 01:54:41;;;;;;;10.15;6.00;;;15.30;99.90;;;;;;5053223;28;20382;-80
2022/05/10 01:57:15;;;;;;;10.93;6.30;;;15.30;99.90;;;;;;5044049;28;20028;-79
2022/05/10 01:59:51;;;;;;;14.38;7.85;;;15.30;99.90;;;;;;5055294;28;20040;-80
2022/05/10 02:02:21;;;;;;;18.35;8.45;;;15.30;99.90;;;;;;5054168;28;20627;-80
2022/05/10 02:04:50;;;;;;;15.70;8.20;;;15.20;99.90;;;;;;5086553;22;20052;-75
2022/05/10 02:07:20;;;;;;;13.23;6.97;;;15.20;99.90;;;;;;5073462;28;20024;-75
2022/05/10 02:09:48;;;;;;;16.13;7.47;;;15.10;99.90;;;;;;5073941;28;20473;-75
2022/05/10 02:12:13;;;;;;;16.17;8.55;;;15.10;99.90;;;;;;5072584;28;20032;-74
2022/05/10 02:14:42;;;;;;;13.70;7.78;;;15.00;99.90;;;;;;5067170;28;20017;-75
2022/05/10 02:17:15;;;;;;;15.35;7.72;;;15.00;99.90;;;;;;5073940;28;20021;-74
2022/05/10 02:19:49;;;;;;;15.40;8.57;;;15.00;99.90;;;;;;5072474;28;20473;-75
2022/05/10 02:22:22;;;;;;;13.20;7.60;;;14.90;99.90;;;;;;5073672;28;20025;-75
2022/05/10 02:25:11;;;;;;;15.38;8.15;;;14.90;99.90;;;;;;5073882;28;20025;-75
2022/05/10 02:27:43;;;;;;;16.08;7.95;;;14.90;99.90;;;;;;5074193;28;20032;-74
2022/05/10 02:30:12;;;;;;;;;;;14.90;99.90;;;;;;5067365;28;20531;-74
2022/05/10 02:33:09;;;;;;;14.95;7.10;;;14.90;99.90;;;;;;5073666;28;19930;-74
2022/05/10 02:35:53;;;;;;;15.55;7.25;;;14.90;99.90;;;;;;5072328;28;20017;-75
2022/05/10 02:38:23;;;;;;;18.42;8.50;;;14.90;99.90;;;;;;5066728;28;20017;-75
2022/05/10 02:40:52;;;;;;;16.20;8.95;;;14.90;99.90;;;;;;5073490;28;20078;-75
2022/05/10 02:43:23;;;;;;;19.55;9.88;;;14.90;99.90;;;;;;5072014;28;20028;-75
2022/05/10 02:45:50;;;;;;;23.13;9.90;;;14.80;99.90;;;;;;5072726;28;20017;-74
2022/05/10 02:48:22;;;;;;;18.13;9.77;;;14.80;99.90;;;;;;5073474;28;20289;-75
2022/05/10 02:50:48;;;;;;;17.30;9.30;;;14.70;99.90;;;;;;5073131;28;20020;-74
2022/05/10 02:53:14;;;;;;;18.75;9.55;;;14.60;99.90;;;;;;5073088;28;20074;-75
2022/05/10 02:56:04;;;;;;;18.20;9.60;;;14.60;99.90;;;;;;5073665;28;20024;-74
2022/05/10 02:58:29;;;;;;;15.75;8.30;;;14.60;99.90;;;;;;5072842;28;20024;-74
2022/05/10 03:01:05;;;;;;;17.08;9.18;;;14.50;99.90;;;;;;5073384;28;20062;-75
2022/05/10 03:03:33;;;;;;;13.65;7.35;;;14.50;99.90;;;;;;5090617;22;20265;-80
2022/05/10 03:05:58;;;;;;;11.43;7.30;;;14.50;99.90;;;;;;5051453;28;20032;-80
2022/05/10 03:08:24;;;;;;;15.63;6.40;;;14.50;99.90;;;;;;5053985;28;20028;-80
2022/05/10 03:10:50;;;;;;;7.72;5.05;;;14.50;99.90;;;;;;5053880;28;20032;-80
2022/05/10 03:13:16;;;;;;;7.75;4.07;;;14.60;99.90;;;;;;5054107;28;20035;-81
2022/05/10 03:15:42;;;;;;;8.55;3.90;;;14.70;99.90;;;;;;5053775;28;20036;-80
2022/05/10 03:18:07;;;;;;;7.53;3.50;;;14.80;99.90;;;;;;5053913;28;20079;-80
2022/05/10 03:20:33;;;;;;;5.60;3.72;;;14.90;99.90;;;;;;5053380;28;20488;-80
2022/05/10 03:22:59;;;;;;;4.93;2.58;;;14.90;99.90;;;;;;5053638;28;20079;-80
2022/05/10 03:25:25;;;;;;;5.80;3.90;;;14.90;99.90;;;;;;5053540;28;20025;-80
2022/05/10 03:27:51;;;;;;;4.95;2.90;;;15.00;99.90;;;;;;5053593;28;20033;-80
2022/05/10 03:30:18;;;;;;;6.30;3.45;;;15.00;99.90;;;;;;5053677;28;20036;-80
2022/05/10 03:32:44;;;;;;;7.97;3.47;;;15.00;99.90;;;;;;5053440;28;20032;-80
2022/05/10 03:35:11;;;;;;;5.22;3.08;;;15.00;99.90;;;;;;5052931;28;20025;-80
2022/05/10 03:37:36;;;;;;;7.85;4.07;;;14.90;99.90;;;;;;5053289;28;20032;-79
2022/05/10 03:40:03;;;;;;;4.35;3.10;;;14.80;99.90;;;;;;5052857;28;20014;-80
2022/05/10 03:42:29;;;;;;;5.50;3.08;;;14.80;99.90;;;;;;5034983;28;20037;-80
2022/05/10 03:44:55;;;;;;;4.75;3.38;;;14.70;99.90;;;;;;5053328;28;20044;-80
2022/05/10 03:47:23;;;;;;;8.55;3.80;;;14.60;99.90;;;;;;5053213;28;20032;-80
2022/05/10 03:49:49;;;;;;;9.55;3.67;;;14.60;99.90;;;;;;5052669;28;20052;-80
2022/05/10 03:52:16;;;;;;;5.13;3.30;;;14.60;99.90;;;;;;5034850;28;20110;-79
2022/05/10 03:54:42;;;;;;;7.13;4.00;;;14.50;99.90;;;;;;5052023;28;20496;-80
2022/05/10 03:57:09;;;;;;;10.32;5.75;;;14.50;99.90;;;;;;5052970;28;20028;-80
2022/05/10 03:59:41;;;;;;;8.13;4.63;;;14.40;99.90;;;;;;5052751;28;20059;-80
2022/05/10 04:02:10;;;;;;;10.40;6.15;;;14.30;99.90;;;;;;5059355;28;20013;-81
2022/05/10 04:04:36;;;;;;;12.60;7.40;;;14.20;99.90;;;;;;5084120;22;20115;-75
2022/05/10 04:07:02;;;;;;;12.80;7.30;;;14.10;99.90;;;;;;5071947;28;20021;-74
2022/05/10 04:09:28;;;;;;;14.40;7.55;;;14.00;99.90;;;;;;5072159;28;20401;-76
2022/05/10 04:11:54;;;;;;;15.18;8.38;;;14.00;99.90;;;;;;5071763;28;20017;-75
2022/05/10 04:14:20;;;;;;;12.13;6.85;;;13.90;99.90;;;;;;5071628;28;20021;-75
2022/05/10 04:16:45;;;;;;;12.48;8.13;;;13.80;99.90;;;;;;5072067;28;20021;-75
2022/05/10 04:19:11;;;;;;;14.00;7.88;;;13.70;99.90;;;;;;5071460;28;20385;-75
2022/05/10 04:21:36;;;;;;;17.45;9.18;;;13.70;99.90;;;;;;5069687;28;20086;-75
2022/05/10 04:24:03;;;;;;;16.02;8.55;;;13.70;99.90;;;;;;5070419;28;20047;-75
2022/05/10 04:26:28;;;;;;;18.50;8.98;;;13.60;99.90;;;;;;5071678;28;20021;-75
2022/05/10 04:28:54;;;;;;;15.38;8.35;;;13.60;99.90;;;;;;5070384;28;20037;-74
2022/05/10 04:31:20;;;;;;;13.25;7.65;;;13.50;99.90;;;;;;5071701;28;20394;-75
2022/05/10 04:33:46;;;;;;;18.85;9.50;;;13.50;99.90;;;;;;5069669;28;20032;-75
2022/05/10 04:36:12;;;;;;;18.83;9.43;;;13.40;99.90;;;;;;5069805;28;20465;-75
2022/05/10 04:38:38;;;;;;;21.73;9.68;;;13.40;99.90;;;;;;5071455;28;20028;-74
2022/05/10 04:43:49;;;;;;;19.65;10.40;;;13.20;99.90;;;;;;5070859;28;20063;-75
2022/05/10 04:46:15;;;;;;;20.52;10.00;;;13.20;99.90;;;;;;5070823;28;20515;-75
2022/05/10 04:48:41;;;;;;;19.38;10.25;;;13.20;99.90;;;;;;5071338;28;20025;-75
2022/05/10 04:51:07;;;;;;;20.63;10.32;;;13.20;99.90;;;;;;5070504;28;20028;-75
2022/05/10 04:53:33;;;;;;;21.65;9.85;;;13.20;99.90;;;;;;5070862;28;20056;-75
2022/05/10 04:55:59;;;;;;;18.80;10.10;;;13.20;99.90;;;;;;5070964;28;20048;-74
2022/05/10 04:58:25;;;;;;;19.85;9.80;;;13.30;99.90;;;;;;5071039;28;20067;-75
2022/05/10 05:00:55;;;;;;;19.70;10.25;;;13.30;99.90;;;;;;5070693;28;20055;-75
2022/05/10 05:03:21;;;;;;;19.85;10.15;;;13.30;99.90;;;;;;5071038;28;20028;-75
2022/05/10 05:05:46;;;;;;;15.88;10.40;;;13.30;99.90;;;;;;5072059;22;20052;-80
2022/05/10 05:08:12;;;;;;;20.02;8.95;;;13.40;99.90;;;;;;5051443;28;20037;-80
2022/05/10 05:10:38;;;;;;;19.80;11.02;;;13.40;99.90;;;;;;5051747;28;20021;-80
2022/05/10 05:13:03;;;;;;;18.80;9.85;;;13.40;99.90;;;;;;5051749;28;20060;-80
2022/05/10 05:15:29;;;;;;;19.13;9.80;;;13.40;99.90;;;;;;5051597;28;20035;-80
2022/05/10 05:17:55;;;;;;;17.13;9.18;;;13.40;99.90;;;;;;5051579;28;20401;-79
2022/05/10 05:20:20;;;;;;;20.05;9.88;;;13.40;99.90;;;;;;5051598;28;20036;-79
2022/05/10 05:22:46;;;;;;;15.23;8.70;;;13.40;99.90;;;;;;5050882;28;20056;-80
2022/05/10 05:25:12;;;;;;;17.90;9.43;;;13.40;99.90;;;;;;5051301;28;20036;-80
2022/05/10 05:27:38;;;;;;;15.18;7.90;;;13.40;99.90;;;;;;5051506;28;20435;-80
2022/05/10 05:30:04;;;;;;;14.05;8.13;;;13.40;99.90;;;;;;5051376;28;20025;-80
2022/05/10 05:32:34;;;;;;;13.20;6.80;;;13.40;99.90;;;;;;5033340;28;20036;-80
2022/05/10 05:35:00;;;;;;;14.45;7.18;;;13.40;99.90;;;;;;5050986;28;20119;-80
2022/05/10 05:37:37;;;;;;;11.05;7.25;;;13.40;99.90;;;;;;5050520;28;20021;-80
2022/05/10 05:40:09;;;;;;;13.00;6.47;;;13.40;99.90;;;;;;5033340;28;20020;-80
2022/05/10 05:42:35;;;;;;;18.33;8.23;;;13.40;99.90;;;;;;5050930;28;20040;-80
2022/05/10 05:45:04;;;;;;;12.20;6.80;;;13.40;99.90;;;;;;5051173;28;20024;-80
2022/05/10 05:47:30;;;;;;;12.20;7.80;;;13.40;99.90;;;;;;5051175;28;20543;-80
2022/05/10 05:49:56;;;;;;;13.35;8.55;;;13.40;99.90;;;;;;5051264;28;20107;-80
2022/05/10 05:52:23;;;;;;;16.60;8.25;;;13.50;99.90;;;;;;5050867;28;20106;-80
2022/05/10 05:54:50;;;;;;;19.20;7.75;;;13.50;99.90;;;;;;5040107;28;20032;-80
2022/05/10 05:57:16;;;;;;;13.02;7.63;;;13.60;99.90;;;;;;5050964;28;20432;-80
2022/05/10 05:59:42;;;;;;;13.60;6.55;;;13.70;99.90;;;;;;5050991;28;20053;-79
2022/05/10 06:02:13;;;;;;;16.42;6.90;;;13.80;99.90;;;;;;5050833;28;20099;-80
2022/05/10 06:04:39;;;;;;;14.27;6.80;;;13.90;99.90;;;;;;5060622;22;20040;-76
2022/05/10 06:07:05;;;;;;;14.98;7.32;;;13.80;99.90;;;;;;5069392;28;20020;-75
2022/05/10 06:09:31;;;;;;;14.60;6.13;;;13.80;99.90;;;;;;5052324;28;20028;-76
2022/05/10 06:11:57;;;;;;;12.07;6.90;;;13.80;99.90;;;;;;5058845;28;20090;-75
2022/05/10 06:14:22;;;;;;;9.45;5.85;;;13.90;99.90;;;;;;5066194;28;20388;-76
2022/05/10 06:16:48;;;;;;;9.70;6.00;;;14.10;99.90;;;;;;5069626;28;20078;-76
2022/05/10 06:19:14;;;;;;;13.60;7.15;;;14.20;99.90;;;;;;5069780;28;20100;-75
2022/05/10 06:21:41;;;;;;;13.50;6.40;;;14.20;99.90;;;;;;5055776;28;20470;-76
2022/05/10 06:24:08;;;;;;;11.48;6.57;;;14.30;99.90;;;;;;5069743;28;20036;-76
2022/05/10 06:26:34;;;;;;;11.18;6.45;;;14.40;99.90;;;;;;5070032;28;20441;-75
2022/05/10 06:28:59;;;;;;;15.75;6.95;;;14.50;99.90;;;;;;5069983;28;20059;-76
2022/05/10 06:31:25;;;;;;;12.68;7.50;;;14.50;99.90;;;;;;5069930;28;20031;-76
2022/05/10 06:33:51;;;;;;;11.38;7.30;;;14.50;99.90;;;;;;5069916;28;20435;-76
2022/05/10 06:36:16;;;;;;;10.90;6.63;;;14.40;99.90;;;;;;5072145;28;20031;-76
2022/05/10 06:38:43;;;;;;;15.30;7.90;;;14.50;99.90;;;;;;5073490;28;20070;-76
2022/05/10 06:41:09;;;;;;;12.77;7.63;;;14.50;99.90;;;;;;5073597;28;20078;-77
2022/05/10 06:43:36;;;;;;;21.77;8.93;;;14.40;99.90;;;;;;5068260;28;20048;-77
2022/05/10 06:46:20;;;;;;;15.85;8.35;;;14.30;99.90;;;;;;5050713;28;20025;-77
2022/05/10 06:48:47;;;;;;;15.77;7.50;;;14.30;99.90;;;;;;5068816;28;20037;-76
2022/05/10 06:51:14;;;;;;;12.65;7.25;;;14.30;99.90;;;;;;5067663;28;20473;-77
2022/05/10 06:53:41;;;;;;;7.68;6.43;;;14.40;99.90;;;;;;5072724;28;20024;-76
2022/05/10 06:56:08;;;;;;;8.80;6.25;;;14.50;99.90;;;;;;5073114;28;20070;-76
2022/05/10 06:58:34;;;;;;;11.40;6.68;;;14.60;99.90;;;;;;5054887;28;20029;-76
2022/05/10 07:01:00;;;;;;;10.82;6.72;;;14.70;99.90;;;;;;5072895;28;20020;-77
2022/05/10 07:03:31;;;;;;;11.18;6.40;;;14.70;99.90;;;;;;5072473;28;20037;-76
2022/05/10 07:06:01;;;;;;;10.53;6.37;;;14.70;99.90;;;;;;5072554;28;20033;-77
2022/05/10 07:08:27;;;;;;;10.07;6.45;;;14.70;99.90;;;;;;5065332;28;20318;-77
2022/05/10 07:10:54;;;;;;;13.75;6.85;;;14.80;99.90;;;;;;5072530;28;20032;-76
2022/05/10 07:13:23;;;;;;;12.80;6.57;;;14.90;99.90;;;;;;5072701;28;20493;-77
2022/05/10 07:15:49;;;;;;;11.07;5.97;;;15.00;99.90;;;;;;5072817;28;20020;-76
2022/05/10 07:18:16;;;;;;;11.05;5.45;;;14.90;99.90;;;;;;5054466;28;20112;-76
2022/05/10 07:20:43;;;;;;;8.63;5.88;;;14.80;99.90;;;;;;5072327;28;20036;-75
2022/05/10 07:23:10;;;;;;;11.65;6.07;;;14.70;99.90;;;;;;5072701;28;20123;-76
2022/05/10 07:25:36;;;;;;;9.77;5.80;;;14.80;99.90;;;;;;5072304;28;20024;-76
2022/05/10 07:28:03;;;;;;;7.90;5.43;;;14.80;99.90;;;;;;5072326;28;20533;-76
2022/05/10 07:30:30;;;;;;;9.88;5.78;;;14.80;99.90;;;;;;5071853;28;20039;-76
2022/05/10 07:32:57;;;;;;;11.23;6.28;;;14.80;99.90;;;;;;5072561;28;20021;-76
2022/05/10 07:38:10;;;;;;;11.30;5.68;;;15.00;99.90;;;;;;5053053;28;20036;-78
2022/05/10 07:40:36;;;;;;;8.93;5.57;;;15.30;99.90;;;;;;5051519;28;20394;-77
2022/05/10 07:43:02;;;;;;;12.00;5.20;;;15.50;99.90;;;;;;5052705;28;20037;-77
2022/05/10 07:45:28;;;;;;;10.32;5.55;;;15.70;99.90;;;;;;5050880;28;20098;-78
2022/05/10 07:47:54;;;;;;;11.43;4.78;;;15.90;99.90;;;;;;5052643;28;20509;-77
2022/05/10 07:50:20;;;;;;;7.40;4.25;;;16.10;99.90;;;;;;5052363;28;20163;-77
2022/05/10 07:52:46;;;;;;;7.88;4.50;;;16.40;99.90;;;;;;5051774;28;20059;-77
2022/05/10 07:55:13;;;;;;;7.45;4.45;;;16.60;99.90;;;;;;5051339;28;20155;-78
2022/05/10 07:57:40;;;;;;;8.07;4.50;;;16.70;99.90;;;;;;5052809;28;20138;-77
2022/05/10 08:00:11;;;;;;;8.50;4.28;;;16.80;99.90;;;;;;5052211;28;20596;-77
2022/05/10 08:02:37;;;;;;;7.72;4.03;;;16.70;99.90;;;;;;5052322;28;20025;-77
2022/05/10 08:05:03;;;;;;;5.78;4.20;;;16.60;99.90;;;;;;5052165;28;20017;-77
2022/05/10 08:07:29;;;;;;;7.65;4.40;;;16.40;99.90;;;;;;5052249;28;20039;-77
2022/05/10 08:09:55;;;;;;;7.45;4.07;;;16.20;99.90;;;;;;5052300;28;20029;-77
2022/05/10 08:12:21;;;;;;;6.88;4.43;;;16.00;99.90;;;;;;5050814;28;20064;-76
2022/05/10 08:14:47;;;;;;;9.43;4.80;;;16.00;99.90;;;;;;5045196;28;20024;-77
2022/05/10 08:17:13;;;;;;;8.13;4.80;;;15.80;99.90;;;;;;5052140;28;20001;-77
2022/05/10 08:19:38;;;;;;;11.10;5.55;;;15.90;99.90;;;;;;5051809;28;20027;-77
2022/05/10 08:22:04;;;;;;;12.75;6.22;;;15.80;99.90;;;;;;5052314;28;20032;-77
2022/05/10 08:24:30;;;;;;;11.27;5.60;;;15.80;99.90;;;;;;5051545;28;20119;-77
2022/05/10 08:26:55;;;;;;;12.82;5.70;;;15.70;99.90;;;;;;5051563;28;20021;-77
2022/05/10 08:29:21;;;;;;;9.23;5.55;;;15.60;99.90;;;;;;5051843;28;20063;-77
2022/05/10 08:31:47;;;;;;;8.05;5.03;;;15.60;99.90;;;;;;5051869;28;20013;-77
2022/05/10 08:34:12;;;;;;;8.68;5.38;;;15.60;99.90;;;;;;5072680;22;20327;-76
2022/05/10 08:36:38;;;;;;;7.60;5.35;;;15.60;99.90;;;;;;5052513;28;20087;-75
2022/05/10 08:39:04;;;;;;;14.57;5.65;;;15.40;99.90;;;;;;5051995;28;20386;-75
2022/05/10 08:42:05;;;;;;;7.80;4.55;;;15.50;99.90;;;;;;5051576;28;20485;-76
2022/05/10 08:44:36;;;;;;;8.80;5.63;;;15.20;99.90;;;;;;5046889;28;20080;-76
2022/05/10 08:47:06;;;;;;;9.48;5.05;;;15.10;99.90;;;;;;5052071;28;20078;-75
2022/05/10 08:49:47;;;;;;;8.82;5.05;;;15.00;99.90;;;;;;5051768;28;20064;-75
2022/05/10 08:52:14;;;;;;;11.05;5.80;;;14.90;99.90;;;;;;5046759;28;20436;-76
2022/05/10 08:54:41;;;;;;;11.57;6.60;;;14.90;99.90;;;;;;5051814;28;20025;-75
2022/05/10 08:57:45;;;;;;;11.48;6.75;;;14.80;99.90;;;;;;5051145;28;20485;-75
2022/05/10 09:00:12;;;;;;;9.30;5.70;;;14.90;99.90;;;;;;5058692;28;20017;-75
2022/05/10 09:02:57;;;;;;;14.00;5.22;;;14.90;99.90;;;;;;5051717;28;20032;-76
2022/05/10 09:05:28;;;;;;;9.02;5.25;;;15.00;99.90;;;;;;5058620;28;20017;-76
2022/05/10 09:08:12;;;;;;;7.25;5.05;;;15.10;99.90;;;;;;5051981;28;20052;-76
2022/05/10 09:10:45;;;;;;;14.13;5.82;;;15.30;99.90;;;;;;5051928;28;20037;-76
2022/05/10 09:13:15;;;;;;;10.30;5.20;;;15.60;99.90;;;;;;5051750;28;20095;-76
2022/05/10 09:15:46;;;;;;;6.28;4.43;;;15.70;99.90;;;;;;5045266;28;20048;-76
2022/05/10 09:18:28;;;;;;;9.87;5.23;;;16.00;99.90;;;;;;5052122;28;20025;-76
2022/05/10 09:20:54;;;;;;;;;;;16.40;99.90;;;;;;5051736;28;20466;-76
2022/05/10 09:23:33;;;;;;;5.03;3.63;;;16.60;99.90;;;;;;5051587;28;19912;-76
2022/05/10 09:26:00;;;;;;;4.93;3.72;;;16.60;99.90;;;;;;5051501;28;20020;-76
2022/05/10 09:28:54;;;;;;;8.95;4.45;;;16.60;99.90;;;;;;5051412;28;20106;-75
2022/05/10 09:37:34;;;;;;;7.00;4.00;;;17.20;99.90;;;;;;5070758;28;20108;-77
2022/05/10 09:40:34;;;;;;;5.70;3.90;;;17.10;99.90;;;;;;5070217;28;20032;-77
2022/05/10 09:43:23;;;;;;;9.63;4.53;;;17.20;99.90;;;;;;5064677;28;20090;-77
2022/05/10 09:46:15;;;;;;;10.60;4.35;;;17.10;99.90;;;;;;5050129;28;20473;-77
2022/05/10 09:48:42;;;;;;;6.82;3.88;;;16.90;99.90;;;;;;5050783;28;20078;-77
2022/05/10 09:51:33;;;;;;;6.18;4.18;;;16.90;99.90;;;;;;5050596;28;20498;-77
2022/05/10 09:54:10;;;;;;;10.45;4.07;;;17.00;99.90;;;;;;5044529;28;20025;-77
2022/05/10 09:56:43;;;;;;;8.10;4.45;;;17.20;99.90;;;;;;5044449;28;20386;-77
2022/05/10 09:59:17;;;;;;;7.60;3.92;;;17.10;99.90;;;;;;5050622;28;20013;-78
2022/05/10 10:01:49;;;;;;;8.38;4.35;;;17.10;99.90;;;;;;5050652;28;21183;-77
2022/05/10 10:04:27;;;;;;;7.55;4.30;;;17.10;99.90;;;;;;5049989;28;20021;-77
2022/05/10 10:07:10;;;;;;;7.82;4.60;;;16.90;99.90;;;;;;5050387;28;20025;-77
2022/05/10 10:09:41;;;;;;;9.57;4.70;;;16.90;99.90;;;;;;5054473;28;20029;-78
2022/05/10 10:12:26;;;;;;;6.95;3.55;;;17.10;99.90;;;;;;5054636;28;20013;-78
2022/05/10 10:14:52;;;;;;;9.32;4.60;;;17.20;99.90;;;;;;5049137;28;20025;-77
2022/05/10 10:17:25;;;;;;;8.45;4.22;;;17.60;99.90;;;;;;5054691;28;20017;-78
2022/05/10 10:20:49;;;;;;;7.47;4.28;;;17.50;99.90;;;;;;5054115;28;20067;-78
2022/05/10 10:23:39;;;;;;;7.78;3.85;;;17.50;99.90;;;;;;5043654;28;20044;-77
2022/05/10 10:26:33;;;;;;;10.68;4.43;;;18.00;99.90;;;;;;5053856;28;20021;-78
2022/05/10 10:29:03;;;;;;;8.38;3.97;;;17.70;99.90;;;;;;5054032;28;20605;-78
2022/05/10 10:31:33;;;;;;;6.47;4.13;;;17.90;99.90;;;;;;5053981;28;20021;-76
2022/05/10 10:34:11;;;;;;;6.55;4.00;;;18.10;99.90;;;;;;5072266;22;20014;-76
2022/05/10 10:36:46;;;;;;;7.70;5.40;;;18.40;99.90;;;;;;5026458;28;20029;-77
2022/05/10 10:39:45;;;;;;;7.97;4.63;;;18.10;99.90;;;;;;5041489;28;20018;-76
2022/05/10 10:42:36;;;;;;;8.93;4.97;;;17.50;99.90;;;;;;5029588;28;20021;-78
2022/05/10 10:45:04;;;;;;;10.85;4.35;;;17.20;99.90;;;;;;5034644;28;20021;-76
2022/05/10 10:47:45;;;;;;;11.32;4.38;;;17.50;99.90;;;;;;5034736;28;20471;-78
2022/05/10 10:50:29;;;;;;;7.97;5.38;;;17.40;99.90;;;;;;5034582;28;20021;-77
2022/05/10 10:52:58;;;;;;;9.15;4.70;;;17.30;99.90;;;;;;5027693;28;20021;-77
2022/05/10 10:55:42;;;;;;;11.10;5.88;;;17.10;99.90;;;;;;5033392;28;20029;-77
2022/05/10 10:58:31;;;;;;;6.75;4.82;;;17.00;99.90;;;;;;5034472;28;20025;-77
2022/05/10 11:01:34;;;;;;;9.88;5.32;;;17.10;99.90;;;;;;5021887;28;20438;-76
2022/05/10 11:04:44;;;;;;;6.25;4.35;;;16.90;99.90;;;;;;5029007;28;20033;-76
2022/05/10 11:07:44;;;;;;;13.77;5.93;;;16.50;99.90;;;;;;5032519;28;20096;-76
2022/05/10 11:10:27;;;;;;;10.57;4.93;;;16.30;99.90;;;;;;4996318;28;20139;-76
2022/05/10 11:13:05;;;;;;;7.30;4.57;;;16.40;99.90;;;;;;5034008;28;20025;-76
2022/05/10 11:15:43;;;;;;;10.52;5.10;;;16.40;99.90;;;;;;5034169;28;20025;-76
2022/05/10 11:18:21;;;;;;;15.68;5.22;;;16.30;99.90;;;;;;5034078;28;20029;-78
2022/05/10 11:21:11;;;;;;;8.65;4.55;;;16.30;99.90;;;;;;5033294;28;20424;-76
2022/05/10 11:23:44;;;;;;;9.30;4.82;;;16.30;99.90;;;;;;5033973;28;20033;-76
2022/05/10 11:26:44;;;;;;;8.73;5.28;;;16.20;99.90;;;;;;5033997;28;21435;-76
2022/05/10 11:29:32;;;;;;;9.02;4.72;;;16.00;99.90;;;;;;4964287;28;20035;-76
2022/05/10 11:32:08;;;;;;;10.63;4.80;;;15.90;99.90;;;;;;5027035;28;20021;-77
2022/05/10 11:35:14;;;;;;;12.68;5.30;;;15.90;99.90;;;;;;5063029;22;20048;-78
2022/05/10 11:38:10;;;;;;;8.68;4.35;;;15.80;99.90;;;;;;5071391;28;20451;-78
2022/05/10 11:40:39;;;;;;;7.32;4.07;;;15.80;99.90;;;;;;5069478;28;20029;-77
2022/05/10 11:43:24;;;;;;;7.00;4.00;;;15.90;99.90;;;;;;5072864;28;20032;-79
2022/05/10 11:46:21;;;;;;;8.75;4.53;;;16.00;99.90;;;;;;5050689;28;20385;-78
2022/05/10 11:49:08;;;;;;;7.68;4.40;;;16.00;99.90;;;;;;5052771;28;20112;-79
2022/05/10 11:51:45;;;;;;;8.05;4.55;;;15.90;99.90;;;;;;5052355;28;20043;-78
2022/05/10 11:54:34;;;;;;;7.28;3.85;;;16.20;99.90;;;;;;5052050;28;20060;-79
2022/05/10 11:57:01;;;;;;;9.23;3.83;;;16.30;99.90;;;;;;5051040;28;20033;-80
2022/05/10 11:59:32;;;;;;;9.10;3.95;;;16.20;99.90;;;;;;5052528;28;20032;-79
2022/05/10 12:01:59;;;;;;;6.30;4.17;;;16.30;99.90;;;;;;5052702;28;20512;-79
2022/05/10 12:04:44;;;;;;;8.20;3.97;;;16.50;99.90;;;;;;5052389;28;20033;-78
2022/05/10 12:07:23;;;;;;;7.53;4.40;;;16.70;99.90;;;;;;5052170;28;20502;-79
2022/05/10 12:09:52;;;;;;;11.25;3.67;;;16.90;99.90;;;;;;5052233;28;20060;-78
2022/05/10 12:12:33;;;;;;;8.15;4.03;;;17.00;99.90;;;;;;5051987;28;20126;-77
2022/05/10 12:24:02;;;;;;;7.15;3.20;;;17.10;99.90;;;;;;5052042;28;20040;-77
2022/05/10 12:26:36;;;;;;;10.65;4.47;;;16.70;99.90;;;;;;5045522;28;20057;-77
2022/05/10 12:29:05;;;;;;;6.80;3.75;;;16.60;99.90;;;;;;5052014;28;20114;-79
2022/05/10 12:31:30;;;;;;;6.88;3.13;;;16.60;99.90;;;;;;5050722;28;20032;-80
2022/05/10 12:36:35;;;;;;;8.90;3.72;;;16.60;99.90;;;;;;5048822;28;20056;-76
2022/05/10 12:39:30;;;;;;;11.50;4.07;;;16.20;99.90;;;;;;5051639;28;20032;-77
2022/05/10 12:42:07;;;;;;;7.82;3.78;;;15.90;99.90;;;;;;5045356;28;20058;-76
2022/05/10 12:44:32;;;;;;;6.53;4.05;;;15.80;99.90;;;;;;5051394;28;20029;-77
2022/05/10 12:47:13;;;;;;;9.65;4.93;;;15.70;99.90;;;;;;5051489;28;20033;-77
2022/05/10 12:49:55;;;;;;;10.43;4.30;;;15.70;99.90;;;;;;5051137;28;20098;-75
2022/05/10 12:52:38;;;;;;;14.10;4.50;;;15.70;99.90;;;;;;5051315;28;20045;-78
2022/05/10 12:55:09;;;;;;;8.27;4.65;;;15.60;99.90;;;;;;5050219;28;20029;-78
2022/05/10 12:57:44;;;;;;;9.55;4.93;;;15.60;99.90;;;;;;5051238;28;20021;-77
2022/05/10 13:00:14;;;;;;;12.57;4.95;;;15.60;99.90;;;;;;5033558;28;20056;-77
2022/05/10 13:02:51;;;;;;;12.68;4.72;;;15.60;99.90;;;;;;5051135;28;20104;-77
2022/05/10 13:05:24;;;;;;;9.50;4.85;;;15.60;99.90;;;;;;5051242;28;20090;-76
2022/05/10 13:08:02;;;;;;;11.10;4.20;;;15.60;99.90;;;;;;5051214;28;20028;-76
2022/05/10 13:10:30;;;;;;;11.63;5.50;;;15.70;99.90;;;;;;5050673;28;20390;-76
2022/05/10 13:13:18;;;;;;;12.02;5.05;;;16.00;99.90;;;;;;5051088;28;20025;-78
2022/05/10 13:15:46;;;;;;;11.40;4.43;;;16.20;99.90;;;;;;5045984;28;20473;-77
2022/05/10 13:18:24;;;;;;;8.95;4.55;;;16.30;99.90;;;;;;5050957;28;20071;-77
2022/05/10 13:20:52;;;;;;;12.45;5.45;;;16.30;99.90;;;;;;5050804;28;20021;-77
2022/05/10 13:23:19;;;;;;;11.63;4.90;;;16.60;99.90;;;;;;5050801;28;20474;-77
2022/05/10 13:25:47;;;;;;;7.70;4.07;;;16.80;99.90;;;;;;5050803;28;20025;-76
2022/05/10 13:28:22;;;;;;;8.35;4.53;;;16.70;99.90;;;;;;5050595;28;20477;-77
2022/05/10 13:30:50;;;;;;;10.68;4.70;;;16.50;99.90;;;;;;5050573;28;20493;-77
2022/05/10 13:33:36;;;;;;;7.18;3.78;;;16.50;99.90;;;;;;5032213;28;20036;-77
2022/05/10 13:36:05;;;;;;;9.88;4.88;;;16.40;99.90;;;;;;5104372;22;20051;-79